Sapelo Island, Georgia
Current Conditions -  °F | °C
As of 11:35 AM on Saturday 22 Nov 2014 (Local Time) from KBQK Reporting Station
NA  
Wind Chill: 68°   Ceiling: NA
Heat Index: 68°   Visibility: 10mi
Dew Point: 54°   Wind: 17mph
Humidity: 60%   Direction: 50°NE
Pressure: 30.38"   Gusts: 24mph
Location:  31.4°N, 81.28°W
Report Text: KBQK 221635Z AUTO 05015G21KT 10SM 20/12 A3038 RMK AO1
Loading
Personal Weather Stations






























Interactive Weather Map New forecast layout! Learn more

10-Day Weather Forecast

Advertisements
Track Severe Weather on mobile